Index of /20260415/WXO-DD/model_rdps/10km/06/000
Name Last modified Size Description
Parent Directory -
20260415T06Z_MSC_RDPS_AbsoluteVorticity_IsbL-0250_RLatLon0.09_PT000H.grib2 2026-04-15 08:44 643K
20260415T06Z_MSC_RDPS_AbsoluteVorticity_IsbL-0500_RLatLon0.09_PT000H.grib2 2026-04-15 08:44 598K
20260415T06Z_MSC_RDPS_AbsoluteVorticity_IsbL-0700_RLatLon0.09_PT000H.grib2 2026-04-15 08:44 535K
20260415T06Z_MSC_RDPS_AbsoluteVorticity_IsbL-0850_RLatLon0.09_PT000H.grib2 2026-04-15 08:44 663K
20260415T06Z_MSC_RDPS_AirTemp_AGL-120m_RLatLon0.09_PT000H.grib2 2026-04-15 08:44 368K
20260415T06Z_MSC_RDPS_AirTemp_AGL-2m_RLatLon0.09_PT000H.grib2 2026-04-15 08:44 528K
20260415T06Z_MSC_RDPS_AirTemp_AGL-40m_RLatLon0.09_PT000H.grib2 2026-04-15 08:44 389K
20260415T06Z_MSC_RDPS_AirTemp_AGL-80m_RLatLon0.09_PT000H.grib2 2026-04-15 08:44 377K
20260415T06Z_MSC_RDPS_AirTemp_IsbL-0001_RLatLon0.09_PT000H.grib2 2026-04-15 08:44 281K
20260415T06Z_MSC_RDPS_AirTemp_IsbL-0005_RLatLon0.09_PT000H.grib2 2026-04-15 08:44 233K
20260415T06Z_MSC_RDPS_AirTemp_IsbL-0010_RLatLon0.09_PT000H.grib2 2026-04-15 08:44 311K
20260415T06Z_MSC_RDPS_AirTemp_IsbL-0020_RLatLon0.09_PT000H.grib2 2026-04-15 08:44 320K
20260415T06Z_MSC_RDPS_AirTemp_IsbL-0030_RLatLon0.09_PT000H.grib2 2026-04-15 08:45 336K
20260415T06Z_MSC_RDPS_AirTemp_IsbL-0050_RLatLon0.09_PT000H.grib2 2026-04-15 08:44 282K
20260415T06Z_MSC_RDPS_AirTemp_IsbL-0100_RLatLon0.09_PT000H.grib2 2026-04-15 08:44 339K
20260415T06Z_MSC_RDPS_AirTemp_IsbL-0150_RLatLon0.09_PT000H.grib2 2026-04-15 08:44 377K
20260415T06Z_MSC_RDPS_AirTemp_IsbL-0175_RLatLon0.09_PT000H.grib2 2026-04-15 08:44 377K
20260415T06Z_MSC_RDPS_AirTemp_IsbL-0200_RLatLon0.09_PT000H.grib2 2026-04-15 08:44 348K
20260415T06Z_MSC_RDPS_AirTemp_IsbL-0225_RLatLon0.09_PT000H.grib2 2026-04-15 08:44 351K
20260415T06Z_MSC_RDPS_AirTemp_IsbL-0250_RLatLon0.09_PT000H.grib2 2026-04-15 08:44 362K
20260415T06Z_MSC_RDPS_AirTemp_IsbL-0275_RLatLon0.09_PT000H.grib2 2026-04-15 08:44 354K
20260415T06Z_MSC_RDPS_AirTemp_IsbL-0300_RLatLon0.09_PT000H.grib2 2026-04-15 08:44 392K
20260415T06Z_MSC_RDPS_AirTemp_IsbL-0350_RLatLon0.09_PT000H.grib2 2026-04-15 08:45 381K
20260415T06Z_MSC_RDPS_AirTemp_IsbL-0400_RLatLon0.09_PT000H.grib2 2026-04-15 08:44 382K
20260415T06Z_MSC_RDPS_AirTemp_IsbL-0450_RLatLon0.09_PT000H.grib2 2026-04-15 08:44 357K
20260415T06Z_MSC_RDPS_AirTemp_IsbL-0500_RLatLon0.09_PT000H.grib2 2026-04-15 08:44 366K
20260415T06Z_MSC_RDPS_AirTemp_IsbL-0550_RLatLon0.09_PT000H.grib2 2026-04-15 08:45 380K
20260415T06Z_MSC_RDPS_AirTemp_IsbL-0600_RLatLon0.09_PT000H.grib2 2026-04-15 08:44 392K
20260415T06Z_MSC_RDPS_AirTemp_IsbL-0650_RLatLon0.09_PT000H.grib2 2026-04-15 08:44 310K
20260415T06Z_MSC_RDPS_AirTemp_IsbL-0700_RLatLon0.09_PT000H.grib2 2026-04-15 08:44 325K
20260415T06Z_MSC_RDPS_AirTemp_IsbL-0750_RLatLon0.09_PT000H.grib2 2026-04-15 08:44 351K
20260415T06Z_MSC_RDPS_AirTemp_IsbL-0800_RLatLon0.09_PT000H.grib2 2026-04-15 08:44 389K
20260415T06Z_MSC_RDPS_AirTemp_IsbL-0850_RLatLon0.09_PT000H.grib2 2026-04-15 08:44 426K
20260415T06Z_MSC_RDPS_AirTemp_IsbL-0875_RLatLon0.09_PT000H.grib2 2026-04-15 08:44 432K
20260415T06Z_MSC_RDPS_AirTemp_IsbL-0900_RLatLon0.09_PT000H.grib2 2026-04-15 08:44 434K
20260415T06Z_MSC_RDPS_AirTemp_IsbL-0925_RLatLon0.09_PT000H.grib2 2026-04-15 08:44 450K
20260415T06Z_MSC_RDPS_AirTemp_IsbL-0950_RLatLon0.09_PT000H.grib2 2026-04-15 08:44 437K
20260415T06Z_MSC_RDPS_AirTemp_IsbL-0970_RLatLon0.09_PT000H.grib2 2026-04-15 08:44 458K
20260415T06Z_MSC_RDPS_AirTemp_IsbL-0985_RLatLon0.09_PT000H.grib2 2026-04-15 08:44 452K
20260415T06Z_MSC_RDPS_AirTemp_IsbL-1000_RLatLon0.09_PT000H.grib2 2026-04-15 08:44 437K
20260415T06Z_MSC_RDPS_AirTemp_IsbL-1015_RLatLon0.09_PT000H.grib2 2026-04-15 08:45 437K
20260415T06Z_MSC_RDPS_Albedo_Sfc_RLatLon0.09_PT000H.grib2 2026-04-15 08:45 163K
20260415T06Z_MSC_RDPS_CAPE_Sfc_RLatLon0.09_PT000H.grib2 2026-04-15 08:45 1.5M
20260415T06Z_MSC_RDPS_CIN_Sfc_RLatLon0.09_PT000H.grib2 2026-04-15 08:45 1.2M
20260415T06Z_MSC_RDPS_CloudWater_EAtm_RLatLon0.09_PT000H.grib2 2026-04-15 08:45 191K
20260415T06Z_MSC_RDPS_DewPointDepression_AGL-2m_RLatLon0.09_PT000H.grib2 2026-04-15 08:45 306K
20260415T06Z_MSC_RDPS_DewPointDepression_IsbL-0001_RLatLon0.09_PT000H.grib2 2026-04-15 08:45 193
20260415T06Z_MSC_RDPS_DewPointDepression_IsbL-0005_RLatLon0.09_PT000H.grib2 2026-04-15 08:44 193
20260415T06Z_MSC_RDPS_DewPointDepression_IsbL-0010_RLatLon0.09_PT000H.grib2 2026-04-15 08:45 193
20260415T06Z_MSC_RDPS_DewPointDepression_IsbL-0020_RLatLon0.09_PT000H.grib2 2026-04-15 08:45 193
20260415T06Z_MSC_RDPS_DewPointDepression_IsbL-0030_RLatLon0.09_PT000H.grib2 2026-04-15 08:44 16K
20260415T06Z_MSC_RDPS_DewPointDepression_IsbL-0050_RLatLon0.09_PT000H.grib2 2026-04-15 08:45 98K
20260415T06Z_MSC_RDPS_DewPointDepression_IsbL-0100_RLatLon0.09_PT000H.grib2 2026-04-15 08:45 116K
20260415T06Z_MSC_RDPS_DewPointDepression_IsbL-0150_RLatLon0.09_PT000H.grib2 2026-04-15 08:44 128K
20260415T06Z_MSC_RDPS_DewPointDepression_IsbL-0175_RLatLon0.09_PT000H.grib2 2026-04-15 08:44 152K
20260415T06Z_MSC_RDPS_DewPointDepression_IsbL-0200_RLatLon0.09_PT000H.grib2 2026-04-15 08:45 179K
20260415T06Z_MSC_RDPS_DewPointDepression_IsbL-0225_RLatLon0.09_PT000H.grib2 2026-04-15 08:44 216K
20260415T06Z_MSC_RDPS_DewPointDepression_IsbL-0250_RLatLon0.09_PT000H.grib2 2026-04-15 08:44 254K
20260415T06Z_MSC_RDPS_DewPointDepression_IsbL-0275_RLatLon0.09_PT000H.grib2 2026-04-15 08:44 268K
20260415T06Z_MSC_RDPS_DewPointDepression_IsbL-0300_RLatLon0.09_PT000H.grib2 2026-04-15 08:45 283K
20260415T06Z_MSC_RDPS_DewPointDepression_IsbL-0350_RLatLon0.09_PT000H.grib2 2026-04-15 08:44 290K
20260415T06Z_MSC_RDPS_DewPointDepression_IsbL-0400_RLatLon0.09_PT000H.grib2 2026-04-15 08:44 302K
20260415T06Z_MSC_RDPS_DewPointDepression_IsbL-0450_RLatLon0.09_PT000H.grib2 2026-04-15 08:44 303K
20260415T06Z_MSC_RDPS_DewPointDepression_IsbL-0500_RLatLon0.09_PT000H.grib2 2026-04-15 08:45 308K
20260415T06Z_MSC_RDPS_DewPointDepression_IsbL-0550_RLatLon0.09_PT000H.grib2 2026-04-15 08:45 319K
20260415T06Z_MSC_RDPS_DewPointDepression_IsbL-0600_RLatLon0.09_PT000H.grib2 2026-04-15 08:45 325K
20260415T06Z_MSC_RDPS_DewPointDepression_IsbL-0650_RLatLon0.09_PT000H.grib2 2026-04-15 08:45 329K
20260415T06Z_MSC_RDPS_DewPointDepression_IsbL-0700_RLatLon0.09_PT000H.grib2 2026-04-15 08:45 338K
20260415T06Z_MSC_RDPS_DewPointDepression_IsbL-0750_RLatLon0.09_PT000H.grib2 2026-04-15 08:45 349K
20260415T06Z_MSC_RDPS_DewPointDepression_IsbL-0800_RLatLon0.09_PT000H.grib2 2026-04-15 08:44 367K
20260415T06Z_MSC_RDPS_DewPointDepression_IsbL-0850_RLatLon0.09_PT000H.grib2 2026-04-15 08:44 385K
20260415T06Z_MSC_RDPS_DewPointDepression_IsbL-0875_RLatLon0.09_PT000H.grib2 2026-04-15 08:44 378K
20260415T06Z_MSC_RDPS_DewPointDepression_IsbL-0900_RLatLon0.09_PT000H.grib2 2026-04-15 08:44 370K
20260415T06Z_MSC_RDPS_DewPointDepression_IsbL-0925_RLatLon0.09_PT000H.grib2 2026-04-15 08:45 359K
20260415T06Z_MSC_RDPS_DewPointDepression_IsbL-0950_RLatLon0.09_PT000H.grib2 2026-04-15 08:44 355K
20260415T06Z_MSC_RDPS_DewPointDepression_IsbL-0970_RLatLon0.09_PT000H.grib2 2026-04-15 08:44 353K
20260415T06Z_MSC_RDPS_DewPointDepression_IsbL-0985_RLatLon0.09_PT000H.grib2 2026-04-15 08:44 347K
20260415T06Z_MSC_RDPS_DewPointDepression_IsbL-1000_RLatLon0.09_PT000H.grib2 2026-04-15 08:44 342K
20260415T06Z_MSC_RDPS_DewPointDepression_IsbL-1015_RLatLon0.09_PT000H.grib2 2026-04-15 08:45 333K
20260415T06Z_MSC_RDPS_DewPoint_AGL-2m_RLatLon0.09_PT000H.grib2 2026-04-15 08:45 249K
20260415T06Z_MSC_RDPS_DownwardLongwaveRadiationFlux-Accum_Sfc_RLatLon0.09_PT000H.grib2 2026-04-15 08:44 217
20260415T06Z_MSC_RDPS_DownwardShortwaveRadiationFlux-Accum_NTAtm_RLatLon0.09_PT000H.grib2 2026-04-15 08:44 217
20260415T06Z_MSC_RDPS_DownwardShortwaveRadiationFlux-Accum_Sfc_RLatLon0.09_PT000H.grib2 2026-04-15 08:44 217
20260415T06Z_MSC_RDPS_GeopotentialHeight_IsbL-0001_RLatLon0.09_PT000H.grib2 2026-04-15 08:44 220K
20260415T06Z_MSC_RDPS_GeopotentialHeight_IsbL-0005_RLatLon0.09_PT000H.grib2 2026-04-15 08:45 285K
20260415T06Z_MSC_RDPS_GeopotentialHeight_IsbL-0010_RLatLon0.09_PT000H.grib2 2026-04-15 08:44 334K
20260415T06Z_MSC_RDPS_GeopotentialHeight_IsbL-0020_RLatLon0.09_PT000H.grib2 2026-04-15 08:45 333K
20260415T06Z_MSC_RDPS_GeopotentialHeight_IsbL-0030_RLatLon0.09_PT000H.grib2 2026-04-15 08:44 333K
20260415T06Z_MSC_RDPS_GeopotentialHeight_IsbL-0050_RLatLon0.09_PT000H.grib2 2026-04-15 08:45 255K
20260415T06Z_MSC_RDPS_GeopotentialHeight_IsbL-0100_RLatLon0.09_PT000H.grib2 2026-04-15 08:45 226K
20260415T06Z_MSC_RDPS_GeopotentialHeight_IsbL-0150_RLatLon0.09_PT000H.grib2 2026-04-15 08:44 264K
20260415T06Z_MSC_RDPS_GeopotentialHeight_IsbL-0175_RLatLon0.09_PT000H.grib2 2026-04-15 08:44 265K
20260415T06Z_MSC_RDPS_GeopotentialHeight_IsbL-0200_RLatLon0.09_PT000H.grib2 2026-04-15 08:44 265K
20260415T06Z_MSC_RDPS_GeopotentialHeight_IsbL-0225_RLatLon0.09_PT000H.grib2 2026-04-15 08:44 265K
20260415T06Z_MSC_RDPS_GeopotentialHeight_IsbL-0250_RLatLon0.09_PT000H.grib2 2026-04-15 08:44 266K
20260415T06Z_MSC_RDPS_GeopotentialHeight_IsbL-0275_RLatLon0.09_PT000H.grib2 2026-04-15 08:44 266K
20260415T06Z_MSC_RDPS_GeopotentialHeight_IsbL-0300_RLatLon0.09_PT000H.grib2 2026-04-15 08:44 266K
20260415T06Z_MSC_RDPS_GeopotentialHeight_IsbL-0350_RLatLon0.09_PT000H.grib2 2026-04-15 08:44 264K
20260415T06Z_MSC_RDPS_GeopotentialHeight_IsbL-0400_RLatLon0.09_PT000H.grib2 2026-04-15 08:44 261K
20260415T06Z_MSC_RDPS_GeopotentialHeight_IsbL-0450_RLatLon0.09_PT000H.grib2 2026-04-15 08:44 227K
20260415T06Z_MSC_RDPS_GeopotentialHeight_IsbL-0500_RLatLon0.09_PT000H.grib2 2026-04-15 08:44 224K
20260415T06Z_MSC_RDPS_GeopotentialHeight_IsbL-0550_RLatLon0.09_PT000H.grib2 2026-04-15 08:44 293K
20260415T06Z_MSC_RDPS_GeopotentialHeight_IsbL-0600_RLatLon0.09_PT000H.grib2 2026-04-15 08:44 289K
20260415T06Z_MSC_RDPS_GeopotentialHeight_IsbL-0650_RLatLon0.09_PT000H.grib2 2026-04-15 08:44 288K
20260415T06Z_MSC_RDPS_GeopotentialHeight_IsbL-0700_RLatLon0.09_PT000H.grib2 2026-04-15 08:44 287K
20260415T06Z_MSC_RDPS_GeopotentialHeight_IsbL-0750_RLatLon0.09_PT000H.grib2 2026-04-15 08:44 258K
20260415T06Z_MSC_RDPS_GeopotentialHeight_IsbL-0800_RLatLon0.09_PT000H.grib2 2026-04-15 08:44 345K
20260415T06Z_MSC_RDPS_GeopotentialHeight_IsbL-0850_RLatLon0.09_PT000H.grib2 2026-04-15 08:44 349K
20260415T06Z_MSC_RDPS_GeopotentialHeight_IsbL-0875_RLatLon0.09_PT000H.grib2 2026-04-15 08:44 347K
20260415T06Z_MSC_RDPS_GeopotentialHeight_IsbL-0900_RLatLon0.09_PT000H.grib2 2026-04-15 08:44 350K
20260415T06Z_MSC_RDPS_GeopotentialHeight_IsbL-0925_RLatLon0.09_PT000H.grib2 2026-04-15 08:45 384K
20260415T06Z_MSC_RDPS_GeopotentialHeight_IsbL-0950_RLatLon0.09_PT000H.grib2 2026-04-15 08:44 386K
20260415T06Z_MSC_RDPS_GeopotentialHeight_IsbL-0970_RLatLon0.09_PT000H.grib2 2026-04-15 08:45 390K
20260415T06Z_MSC_RDPS_GeopotentialHeight_IsbL-0985_RLatLon0.09_PT000H.grib2 2026-04-15 08:44 396K
20260415T06Z_MSC_RDPS_GeopotentialHeight_IsbL-1000_RLatLon0.09_PT000H.grib2 2026-04-15 08:44 371K
20260415T06Z_MSC_RDPS_GeopotentialHeight_IsbL-1015_RLatLon0.09_PT000H.grib2 2026-04-15 08:45 380K
20260415T06Z_MSC_RDPS_GeopotentialHeight_Sfc_RLatLon0.09_PT000H.grib2 2026-04-15 08:44 295K
20260415T06Z_MSC_RDPS_Humidex_Sfc_RLatLon0.09_PT000H.grib2 2026-04-15 08:45 2.3M
20260415T06Z_MSC_RDPS_KIndex_Sfc_RLatLon0.09_PT000H.grib2 2026-04-15 08:45 2.3M
20260415T06Z_MSC_RDPS_LandWaterProportion_Sfc_RLatLon0.09_PT000H.grib2 2026-04-15 08:44 156K
20260415T06Z_MSC_RDPS_LatentHeatNetFlux_Sfc_RLatLon0.09_PT000H.grib2 2026-04-15 08:44 306K
20260415T06Z_MSC_RDPS_LiftedIndex-MU-VT_IsbL-0500_RLatLon0.09_PT000H.grib2 2026-04-15 08:44 2.3M
20260415T06Z_MSC_RDPS_NetLongwaveRadiationFlux-Accum_Sfc_RLatLon0.09_PT000H.grib2 2026-04-15 08:44 217
20260415T06Z_MSC_RDPS_NetShortwaveRadiationFlux-Accum_Sfc_RLatLon0.09_PT000H.grib2 2026-04-15 08:44 217
20260415T06Z_MSC_RDPS_PlanetaryBoundaryLayerHeight_Sfc_RLatLon0.09_PT000H.grib2 2026-04-15 08:45 1.0M
20260415T06Z_MSC_RDPS_PrecipType-Instant_Sfc_RLatLon0.09_PT000H.grib2 2026-04-15 08:44 193
20260415T06Z_MSC_RDPS_Pressure_MSL_RLatLon0.09_PT000H.grib2 2026-04-15 08:44 312K
20260415T06Z_MSC_RDPS_Pressure_Sfc_RLatLon0.09_PT000H.grib2 2026-04-15 08:44 497K
20260415T06Z_MSC_RDPS_RadiativeTemp_Sfc_RLatLon0.09_PT000H.grib2 2026-04-15 08:44 263K
20260415T06Z_MSC_RDPS_RelativeHumidity_AGL-2m_RLatLon0.09_PT000H.grib2 2026-04-15 08:44 843K
20260415T06Z_MSC_RDPS_RelativeHumidity_IsbL-0010_RLatLon0.09_PT000H.grib2 2026-04-15 08:44 416K
20260415T06Z_MSC_RDPS_RelativeHumidity_IsbL-0020_RLatLon0.09_PT000H.grib2 2026-04-15 08:45 386K
20260415T06Z_MSC_RDPS_RelativeHumidity_IsbL-0030_RLatLon0.09_PT000H.grib2 2026-04-15 08:45 336K
20260415T06Z_MSC_RDPS_RelativeHumidity_IsbL-0050_RLatLon0.09_PT000H.grib2 2026-04-15 08:45 361K
20260415T06Z_MSC_RDPS_RelativeHumidity_IsbL-0100_RLatLon0.09_PT000H.grib2 2026-04-15 08:44 238K
20260415T06Z_MSC_RDPS_RelativeHumidity_IsbL-0150_RLatLon0.09_PT000H.grib2 2026-04-15 08:44 340K
20260415T06Z_MSC_RDPS_RelativeHumidity_IsbL-0175_RLatLon0.09_PT000H.grib2 2026-04-15 08:44 401K
20260415T06Z_MSC_RDPS_RelativeHumidity_IsbL-0200_RLatLon0.09_PT000H.grib2 2026-04-15 08:45 457K
20260415T06Z_MSC_RDPS_RelativeHumidity_IsbL-0225_RLatLon0.09_PT000H.grib2 2026-04-15 08:45 517K
20260415T06Z_MSC_RDPS_RelativeHumidity_IsbL-0250_RLatLon0.09_PT000H.grib2 2026-04-15 08:44 586K
20260415T06Z_MSC_RDPS_RelativeHumidity_IsbL-0275_RLatLon0.09_PT000H.grib2 2026-04-15 08:44 616K
20260415T06Z_MSC_RDPS_RelativeHumidity_IsbL-0300_RLatLon0.09_PT000H.grib2 2026-04-15 08:45 659K
20260415T06Z_MSC_RDPS_RelativeHumidity_IsbL-0350_RLatLon0.09_PT000H.grib2 2026-04-15 08:44 683K
20260415T06Z_MSC_RDPS_RelativeHumidity_IsbL-0400_RLatLon0.09_PT000H.grib2 2026-04-15 08:44 700K
20260415T06Z_MSC_RDPS_RelativeHumidity_IsbL-0450_RLatLon0.09_PT000H.grib2 2026-04-15 08:44 705K
20260415T06Z_MSC_RDPS_RelativeHumidity_IsbL-0500_RLatLon0.09_PT000H.grib2 2026-04-15 08:44 728K
20260415T06Z_MSC_RDPS_RelativeHumidity_IsbL-0550_RLatLon0.09_PT000H.grib2 2026-04-15 08:44 747K
20260415T06Z_MSC_RDPS_RelativeHumidity_IsbL-0600_RLatLon0.09_PT000H.grib2 2026-04-15 08:44 762K
20260415T06Z_MSC_RDPS_RelativeHumidity_IsbL-0650_RLatLon0.09_PT000H.grib2 2026-04-15 08:44 774K
20260415T06Z_MSC_RDPS_RelativeHumidity_IsbL-0700_RLatLon0.09_PT000H.grib2 2026-04-15 08:44 791K
20260415T06Z_MSC_RDPS_RelativeHumidity_IsbL-0750_RLatLon0.09_PT000H.grib2 2026-04-15 08:44 821K
20260415T06Z_MSC_RDPS_RelativeHumidity_IsbL-0800_RLatLon0.09_PT000H.grib2 2026-04-15 08:44 874K
20260415T06Z_MSC_RDPS_RelativeHumidity_IsbL-0850_RLatLon0.09_PT000H.grib2 2026-04-15 08:44 927K
20260415T06Z_MSC_RDPS_RelativeHumidity_IsbL-0875_RLatLon0.09_PT000H.grib2 2026-04-15 08:44 934K
20260415T06Z_MSC_RDPS_RelativeHumidity_IsbL-0900_RLatLon0.09_PT000H.grib2 2026-04-15 08:44 938K
20260415T06Z_MSC_RDPS_RelativeHumidity_IsbL-0925_RLatLon0.09_PT000H.grib2 2026-04-15 08:44 932K
20260415T06Z_MSC_RDPS_RelativeHumidity_IsbL-0950_RLatLon0.09_PT000H.grib2 2026-04-15 08:44 933K
20260415T06Z_MSC_RDPS_RelativeHumidity_IsbL-0970_RLatLon0.09_PT000H.grib2 2026-04-15 08:45 929K
20260415T06Z_MSC_RDPS_RelativeHumidity_IsbL-0985_RLatLon0.09_PT000H.grib2 2026-04-15 08:45 915K
20260415T06Z_MSC_RDPS_RelativeHumidity_IsbL-1000_RLatLon0.09_PT000H.grib2 2026-04-15 08:44 897K
20260415T06Z_MSC_RDPS_RelativeHumidity_IsbL-1015_RLatLon0.09_PT000H.grib2 2026-04-15 08:45 872K
20260415T06Z_MSC_RDPS_Runoff-Accum_Sfc_RLatLon0.09_PT000H.grib2 2026-04-15 08:44 193
20260415T06Z_MSC_RDPS_SWEATIndex_Sfc_RLatLon0.09_PT000H.grib2 2026-04-15 08:44 2.3M
20260415T06Z_MSC_RDPS_SeaIceFraction_Sfc_RLatLon0.09_PT000H.grib2 2026-04-15 08:44 190K
20260415T06Z_MSC_RDPS_SeaWaterTemp_Sfc_RLatLon0.09_PT000H.grib2 2026-04-15 08:45 275K
20260415T06Z_MSC_RDPS_SensibleHeatNetFlux_Sfc_RLatLon0.09_PT000H.grib2 2026-04-15 08:44 248K
20260415T06Z_MSC_RDPS_ShowalterIndex_IsbL-0500_RLatLon0.09_PT000H.grib2 2026-04-15 08:45 2.5M
20260415T06Z_MSC_RDPS_SkyTransparencyIndex_EAtm_RLatLon0.09_PT000H.grib2 2026-04-15 08:44 516K
20260415T06Z_MSC_RDPS_SnowDensity_Sfc_RLatLon0.09_PT000H.grib2 2026-04-15 08:45 166K
20260415T06Z_MSC_RDPS_SnowDepth_Sfc_RLatLon0.09_PT000H.grib2 2026-04-15 08:44 1.4M
20260415T06Z_MSC_RDPS_SoilTemp_DBS-0to10cm_RLatLon0.09_PT000H.grib2 2026-04-15 08:44 183K
20260415T06Z_MSC_RDPS_SoilTemp_Sfc_RLatLon0.09_PT000H.grib2 2026-04-15 08:45 420K
20260415T06Z_MSC_RDPS_SoilVolumetricIceContent_Sfc_RLatLon0.09_PT000H.grib2 2026-04-15 08:45 177K
20260415T06Z_MSC_RDPS_SoilVolumetricWaterContent_DBS-0to10cm_RLatLon0.09_PT000H.grib2 2026-04-15 08:45 257K
20260415T06Z_MSC_RDPS_SoilVolumetricWaterContent_DBS-0to1cm_RLatLon0.09_PT000H.grib2 2026-04-15 08:44 317K
20260415T06Z_MSC_RDPS_SpecificHumidity_AGL-120m_RLatLon0.09_PT000H.grib2 2026-04-15 08:44 409K
20260415T06Z_MSC_RDPS_SpecificHumidity_AGL-2m_RLatLon0.09_PT000H.grib2 2026-04-15 08:44 503K
20260415T06Z_MSC_RDPS_SpecificHumidity_AGL-40m_RLatLon0.09_PT000H.grib2 2026-04-15 08:44 421K
20260415T06Z_MSC_RDPS_SpecificHumidity_AGL-80m_RLatLon0.09_PT000H.grib2 2026-04-15 08:45 413K
20260415T06Z_MSC_RDPS_SpecificHumidity_IsbL-0001_RLatLon0.09_PT000H.grib2 2026-04-15 08:44 289K
20260415T06Z_MSC_RDPS_SpecificHumidity_IsbL-0005_RLatLon0.09_PT000H.grib2 2026-04-15 08:44 336K
20260415T06Z_MSC_RDPS_SpecificHumidity_IsbL-0010_RLatLon0.09_PT000H.grib2 2026-04-15 08:44 358K
20260415T06Z_MSC_RDPS_SpecificHumidity_IsbL-0020_RLatLon0.09_PT000H.grib2 2026-04-15 08:44 367K
20260415T06Z_MSC_RDPS_SpecificHumidity_IsbL-0030_RLatLon0.09_PT000H.grib2 2026-04-15 08:44 431K
20260415T06Z_MSC_RDPS_SpecificHumidity_IsbL-0050_RLatLon0.09_PT000H.grib2 2026-04-15 08:44 451K
20260415T06Z_MSC_RDPS_SpecificHumidity_IsbL-0100_RLatLon0.09_PT000H.grib2 2026-04-15 08:44 364K
20260415T06Z_MSC_RDPS_SpecificHumidity_IsbL-0150_RLatLon0.09_PT000H.grib2 2026-04-15 08:44 392K
20260415T06Z_MSC_RDPS_SpecificHumidity_IsbL-0175_RLatLon0.09_PT000H.grib2 2026-04-15 08:44 468K
20260415T06Z_MSC_RDPS_SpecificHumidity_IsbL-0200_RLatLon0.09_PT000H.grib2 2026-04-15 08:45 381K
20260415T06Z_MSC_RDPS_SpecificHumidity_IsbL-0225_RLatLon0.09_PT000H.grib2 2026-04-15 08:44 385K
20260415T06Z_MSC_RDPS_SpecificHumidity_IsbL-0250_RLatLon0.09_PT000H.grib2 2026-04-15 08:44 484K
20260415T06Z_MSC_RDPS_SpecificHumidity_IsbL-0275_RLatLon0.09_PT000H.grib2 2026-04-15 08:44 409K
20260415T06Z_MSC_RDPS_SpecificHumidity_IsbL-0300_RLatLon0.09_PT000H.grib2 2026-04-15 08:44 471K
20260415T06Z_MSC_RDPS_SpecificHumidity_IsbL-0350_RLatLon0.09_PT000H.grib2 2026-04-15 08:45 500K
20260415T06Z_MSC_RDPS_SpecificHumidity_IsbL-0400_RLatLon0.09_PT000H.grib2 2026-04-15 08:44 454K
20260415T06Z_MSC_RDPS_SpecificHumidity_IsbL-0450_RLatLon0.09_PT000H.grib2 2026-04-15 08:44 398K
20260415T06Z_MSC_RDPS_SpecificHumidity_IsbL-0500_RLatLon0.09_PT000H.grib2 2026-04-15 08:44 443K
20260415T06Z_MSC_RDPS_SpecificHumidity_IsbL-0550_RLatLon0.09_PT000H.grib2 2026-04-15 08:44 515K
20260415T06Z_MSC_RDPS_SpecificHumidity_IsbL-0600_RLatLon0.09_PT000H.grib2 2026-04-15 08:44 556K
20260415T06Z_MSC_RDPS_SpecificHumidity_IsbL-0650_RLatLon0.09_PT000H.grib2 2026-04-15 08:44 476K
20260415T06Z_MSC_RDPS_SpecificHumidity_IsbL-0700_RLatLon0.09_PT000H.grib2 2026-04-15 08:44 510K
20260415T06Z_MSC_RDPS_SpecificHumidity_IsbL-0750_RLatLon0.09_PT000H.grib2 2026-04-15 08:44 551K
20260415T06Z_MSC_RDPS_SpecificHumidity_IsbL-0800_RLatLon0.09_PT000H.grib2 2026-04-15 08:44 607K
20260415T06Z_MSC_RDPS_SpecificHumidity_IsbL-0850_RLatLon0.09_PT000H.grib2 2026-04-15 08:44 676K
20260415T06Z_MSC_RDPS_SpecificHumidity_IsbL-0875_RLatLon0.09_PT000H.grib2 2026-04-15 08:44 684K
20260415T06Z_MSC_RDPS_SpecificHumidity_IsbL-0900_RLatLon0.09_PT000H.grib2 2026-04-15 08:44 691K
20260415T06Z_MSC_RDPS_SpecificHumidity_IsbL-0925_RLatLon0.09_PT000H.grib2 2026-04-15 08:44 689K
20260415T06Z_MSC_RDPS_SpecificHumidity_IsbL-0950_RLatLon0.09_PT000H.grib2 2026-04-15 08:44 691K
20260415T06Z_MSC_RDPS_SpecificHumidity_IsbL-0970_RLatLon0.09_PT000H.grib2 2026-04-15 08:44 689K
20260415T06Z_MSC_RDPS_SpecificHumidity_IsbL-0985_RLatLon0.09_PT000H.grib2 2026-04-15 08:44 678K
20260415T06Z_MSC_RDPS_SpecificHumidity_IsbL-1000_RLatLon0.09_PT000H.grib2 2026-04-15 08:44 535K
20260415T06Z_MSC_RDPS_SpecificHumidity_IsbL-1015_RLatLon0.09_PT000H.grib2 2026-04-15 08:44 521K
20260415T06Z_MSC_RDPS_SpecificHumidity_Sfc_RLatLon0.09_PT000H.grib2 2026-04-15 08:44 517K
20260415T06Z_MSC_RDPS_StormRelativeHelicity_EtaL-10000_RLatLon0.09_PT000H.grib2 2026-04-15 08:45 1.1M
20260415T06Z_MSC_RDPS_StormSeverityIndex_EtaL-10000_RLatLon0.09_PT000H.grib2 2026-04-15 08:44 1.2M
20260415T06Z_MSC_RDPS_Thickness_IsbL-0850to0700_RLatLon0.09_PT000H.grib2 2026-04-15 08:44 165K
20260415T06Z_MSC_RDPS_Thickness_IsbL-1000to0500_RLatLon0.09_PT000H.grib2 2026-04-15 08:44 190K
20260415T06Z_MSC_RDPS_Thickness_IsbL-1000to0850_RLatLon0.09_PT000H.grib2 2026-04-15 08:44 174K
20260415T06Z_MSC_RDPS_TotalCloudCover_Sfc_RLatLon0.09_PT000H.grib2 2026-04-15 08:44 573K
20260415T06Z_MSC_RDPS_TotalTotalsIndex_Sfc_RLatLon0.09_PT000H.grib2 2026-04-15 08:44 2.2M
20260415T06Z_MSC_RDPS_UVIndex-ClearSky-Max24h_Sfc_RLatLon0.09_PT000H.grib2 2026-04-15 08:44 72K
20260415T06Z_MSC_RDPS_UVIndex-ClearSky_Sfc_RLatLon0.09_PT000H.grib2 2026-04-15 08:44 72K
20260415T06Z_MSC_RDPS_UVIndex-Max24h_Sfc_RLatLon0.09_PT000H.grib2 2026-04-15 08:44 126K
20260415T06Z_MSC_RDPS_UVIndex_Sfc_RLatLon0.09_PT000H.grib2 2026-04-15 08:44 126K
20260415T06Z_MSC_RDPS_UpwardLongwaveRadiationFlux_NTAtm_RLatLon0.09_PT000H.grib2 2026-04-15 08:44 483K
20260415T06Z_MSC_RDPS_UpwardShortwaveRadiationFlux_NTAtm_RLatLon0.09_PT000H.grib2 2026-04-15 08:44 132K
20260415T06Z_MSC_RDPS_VerticalVelocity_IsbL-0250_RLatLon0.09_PT000H.grib2 2026-04-15 08:44 425K
20260415T06Z_MSC_RDPS_VerticalVelocity_IsbL-0500_RLatLon0.09_PT000H.grib2 2026-04-15 08:44 442K
20260415T06Z_MSC_RDPS_VerticalVelocity_IsbL-0700_RLatLon0.09_PT000H.grib2 2026-04-15 08:44 628K
20260415T06Z_MSC_RDPS_VerticalVelocity_IsbL-0850_RLatLon0.09_PT000H.grib2 2026-04-15 08:45 703K
20260415T06Z_MSC_RDPS_VerticalWindShear_EtaL-6500_RLatLon0.09_PT000H.grib2 2026-04-15 08:44 1.2M
20260415T06Z_MSC_RDPS_WindChill_Sfc_RLatLon0.09_PT000H.grib2 2026-04-15 08:44 972K
20260415T06Z_MSC_RDPS_WindDir_AGL-10m_RLatLon0.09_PT000H.grib2 2026-04-15 08:44 823K
20260415T06Z_MSC_RDPS_WindDir_AGL-120m_RLatLon0.09_PT000H.grib2 2026-04-15 08:44 518K
20260415T06Z_MSC_RDPS_WindDir_AGL-40m_RLatLon0.09_PT000H.grib2 2026-04-15 08:44 552K
20260415T06Z_MSC_RDPS_WindDir_AGL-80m_RLatLon0.09_PT000H.grib2 2026-04-15 08:44 531K
20260415T06Z_MSC_RDPS_WindDir_IsbL-0001_RLatLon0.09_PT000H.grib2 2026-04-15 08:44 238K
20260415T06Z_MSC_RDPS_WindDir_IsbL-0005_RLatLon0.09_PT000H.grib2 2026-04-15 08:44 312K
20260415T06Z_MSC_RDPS_WindDir_IsbL-0010_RLatLon0.09_PT000H.grib2 2026-04-15 08:44 326K
20260415T06Z_MSC_RDPS_WindDir_IsbL-0020_RLatLon0.09_PT000H.grib2 2026-04-15 08:44 338K
20260415T06Z_MSC_RDPS_WindDir_IsbL-0030_RLatLon0.09_PT000H.grib2 2026-04-15 08:45 346K
20260415T06Z_MSC_RDPS_WindDir_IsbL-0050_RLatLon0.09_PT000H.grib2 2026-04-15 08:45 354K
20260415T06Z_MSC_RDPS_WindDir_IsbL-0100_RLatLon0.09_PT000H.grib2 2026-04-15 08:45 337K
20260415T06Z_MSC_RDPS_WindDir_IsbL-0150_RLatLon0.09_PT000H.grib2 2026-04-15 08:44 334K
20260415T06Z_MSC_RDPS_WindDir_IsbL-0175_RLatLon0.09_PT000H.grib2 2026-04-15 08:44 355K
20260415T06Z_MSC_RDPS_WindDir_IsbL-0200_RLatLon0.09_PT000H.grib2 2026-04-15 08:44 370K
20260415T06Z_MSC_RDPS_WindDir_IsbL-0225_RLatLon0.09_PT000H.grib2 2026-04-15 08:44 380K
20260415T06Z_MSC_RDPS_WindDir_IsbL-0250_RLatLon0.09_PT000H.grib2 2026-04-15 08:44 389K
20260415T06Z_MSC_RDPS_WindDir_IsbL-0275_RLatLon0.09_PT000H.grib2 2026-04-15 08:44 410K
20260415T06Z_MSC_RDPS_WindDir_IsbL-0300_RLatLon0.09_PT000H.grib2 2026-04-15 08:44 415K
20260415T06Z_MSC_RDPS_WindDir_IsbL-0350_RLatLon0.09_PT000H.grib2 2026-04-15 08:44 443K
20260415T06Z_MSC_RDPS_WindDir_IsbL-0400_RLatLon0.09_PT000H.grib2 2026-04-15 08:44 464K
20260415T06Z_MSC_RDPS_WindDir_IsbL-0450_RLatLon0.09_PT000H.grib2 2026-04-15 08:44 479K
20260415T06Z_MSC_RDPS_WindDir_IsbL-0500_RLatLon0.09_PT000H.grib2 2026-04-15 08:44 492K
20260415T06Z_MSC_RDPS_WindDir_IsbL-0550_RLatLon0.09_PT000H.grib2 2026-04-15 08:44 509K
20260415T06Z_MSC_RDPS_WindDir_IsbL-0600_RLatLon0.09_PT000H.grib2 2026-04-15 08:44 525K
20260415T06Z_MSC_RDPS_WindDir_IsbL-0650_RLatLon0.09_PT000H.grib2 2026-04-15 08:44 561K
20260415T06Z_MSC_RDPS_WindDir_IsbL-0700_RLatLon0.09_PT000H.grib2 2026-04-15 08:44 597K
20260415T06Z_MSC_RDPS_WindDir_IsbL-0750_RLatLon0.09_PT000H.grib2 2026-04-15 08:44 627K
20260415T06Z_MSC_RDPS_WindDir_IsbL-0800_RLatLon0.09_PT000H.grib2 2026-04-15 08:44 671K
20260415T06Z_MSC_RDPS_WindDir_IsbL-0850_RLatLon0.09_PT000H.grib2 2026-04-15 08:45 718K
20260415T06Z_MSC_RDPS_WindDir_IsbL-0875_RLatLon0.09_PT000H.grib2 2026-04-15 08:44 732K
20260415T06Z_MSC_RDPS_WindDir_IsbL-0900_RLatLon0.09_PT000H.grib2 2026-04-15 08:44 744K
20260415T06Z_MSC_RDPS_WindDir_IsbL-0925_RLatLon0.09_PT000H.grib2 2026-04-15 08:44 757K
20260415T06Z_MSC_RDPS_WindDir_IsbL-0950_RLatLon0.09_PT000H.grib2 2026-04-15 08:44 769K
20260415T06Z_MSC_RDPS_WindDir_IsbL-0970_RLatLon0.09_PT000H.grib2 2026-04-15 08:44 781K
20260415T06Z_MSC_RDPS_WindDir_IsbL-0985_RLatLon0.09_PT000H.grib2 2026-04-15 08:44 790K
20260415T06Z_MSC_RDPS_WindDir_IsbL-1000_RLatLon0.09_PT000H.grib2 2026-04-15 08:44 801K
20260415T06Z_MSC_RDPS_WindDir_IsbL-1015_RLatLon0.09_PT000H.grib2 2026-04-15 08:44 815K
20260415T06Z_MSC_RDPS_WindGust-Max_AGL-10m_RLatLon0.09_PT000H.grib2 2026-04-15 08:44 759K
20260415T06Z_MSC_RDPS_WindGust-Min_AGL-10m_RLatLon0.09_PT000H.grib2 2026-04-15 08:44 885K
20260415T06Z_MSC_RDPS_WindGust_AGL-10m_RLatLon0.09_PT000H.grib2 2026-04-15 08:44 899K
20260415T06Z_MSC_RDPS_WindSpeed_AGL-10m_RLatLon0.09_PT000H.grib2 2026-04-15 08:44 695K
20260415T06Z_MSC_RDPS_WindSpeed_AGL-120m_RLatLon0.09_PT000H.grib2 2026-04-15 08:44 487K
20260415T06Z_MSC_RDPS_WindSpeed_AGL-40m_RLatLon0.09_PT000H.grib2 2026-04-15 08:44 506K
20260415T06Z_MSC_RDPS_WindSpeed_AGL-80m_RLatLon0.09_PT000H.grib2 2026-04-15 08:44 498K
20260415T06Z_MSC_RDPS_WindSpeed_IsbL-0001_RLatLon0.09_PT000H.grib2 2026-04-15 08:44 285K
20260415T06Z_MSC_RDPS_WindSpeed_IsbL-0005_RLatLon0.09_PT000H.grib2 2026-04-15 08:44 289K
20260415T06Z_MSC_RDPS_WindSpeed_IsbL-0010_RLatLon0.09_PT000H.grib2 2026-04-15 08:45 323K
20260415T06Z_MSC_RDPS_WindSpeed_IsbL-0020_RLatLon0.09_PT000H.grib2 2026-04-15 08:44 291K
20260415T06Z_MSC_RDPS_WindSpeed_IsbL-0030_RLatLon0.09_PT000H.grib2 2026-04-15 08:45 293K
20260415T06Z_MSC_RDPS_WindSpeed_IsbL-0050_RLatLon0.09_PT000H.grib2 2026-04-15 08:44 319K
20260415T06Z_MSC_RDPS_WindSpeed_IsbL-0100_RLatLon0.09_PT000H.grib2 2026-04-15 08:44 419K
20260415T06Z_MSC_RDPS_WindSpeed_IsbL-0150_RLatLon0.09_PT000H.grib2 2026-04-15 08:44 316K
20260415T06Z_MSC_RDPS_WindSpeed_IsbL-0175_RLatLon0.09_PT000H.grib2 2026-04-15 08:44 337K
20260415T06Z_MSC_RDPS_WindSpeed_IsbL-0200_RLatLon0.09_PT000H.grib2 2026-04-15 08:44 380K
20260415T06Z_MSC_RDPS_WindSpeed_IsbL-0225_RLatLon0.09_PT000H.grib2 2026-04-15 08:44 387K
20260415T06Z_MSC_RDPS_WindSpeed_IsbL-0250_RLatLon0.09_PT000H.grib2 2026-04-15 08:44 392K
20260415T06Z_MSC_RDPS_WindSpeed_IsbL-0275_RLatLon0.09_PT000H.grib2 2026-04-15 08:44 407K
20260415T06Z_MSC_RDPS_WindSpeed_IsbL-0300_RLatLon0.09_PT000H.grib2 2026-04-15 08:44 384K
20260415T06Z_MSC_RDPS_WindSpeed_IsbL-0350_RLatLon0.09_PT000H.grib2 2026-04-15 08:44 398K
20260415T06Z_MSC_RDPS_WindSpeed_IsbL-0400_RLatLon0.09_PT000H.grib2 2026-04-15 08:44 400K
20260415T06Z_MSC_RDPS_WindSpeed_IsbL-0450_RLatLon0.09_PT000H.grib2 2026-04-15 08:44 399K
20260415T06Z_MSC_RDPS_WindSpeed_IsbL-0500_RLatLon0.09_PT000H.grib2 2026-04-15 08:44 399K
20260415T06Z_MSC_RDPS_WindSpeed_IsbL-0550_RLatLon0.09_PT000H.grib2 2026-04-15 08:44 505K
20260415T06Z_MSC_RDPS_WindSpeed_IsbL-0600_RLatLon0.09_PT000H.grib2 2026-04-15 08:44 513K
20260415T06Z_MSC_RDPS_WindSpeed_IsbL-0650_RLatLon0.09_PT000H.grib2 2026-04-15 08:44 530K
20260415T06Z_MSC_RDPS_WindSpeed_IsbL-0700_RLatLon0.09_PT000H.grib2 2026-04-15 08:44 589K
20260415T06Z_MSC_RDPS_WindSpeed_IsbL-0750_RLatLon0.09_PT000H.grib2 2026-04-15 08:44 614K
20260415T06Z_MSC_RDPS_WindSpeed_IsbL-0800_RLatLon0.09_PT000H.grib2 2026-04-15 08:44 653K
20260415T06Z_MSC_RDPS_WindSpeed_IsbL-0850_RLatLon0.09_PT000H.grib2 2026-04-15 08:44 697K
20260415T06Z_MSC_RDPS_WindSpeed_IsbL-0875_RLatLon0.09_PT000H.grib2 2026-04-15 08:44 712K
20260415T06Z_MSC_RDPS_WindSpeed_IsbL-0900_RLatLon0.09_PT000H.grib2 2026-04-15 08:44 715K
20260415T06Z_MSC_RDPS_WindSpeed_IsbL-0925_RLatLon0.09_PT000H.grib2 2026-04-15 08:44 725K
20260415T06Z_MSC_RDPS_WindSpeed_IsbL-0950_RLatLon0.09_PT000H.grib2 2026-04-15 08:44 728K
20260415T06Z_MSC_RDPS_WindSpeed_IsbL-0970_RLatLon0.09_PT000H.grib2 2026-04-15 08:45 730K
20260415T06Z_MSC_RDPS_WindSpeed_IsbL-0985_RLatLon0.09_PT000H.grib2 2026-04-15 08:45 724K
20260415T06Z_MSC_RDPS_WindSpeed_IsbL-1000_RLatLon0.09_PT000H.grib2 2026-04-15 08:45 714K
20260415T06Z_MSC_RDPS_WindSpeed_IsbL-1015_RLatLon0.09_PT000H.grib2 2026-04-15 08:45 699K
20260415T06Z_MSC_RDPS_WindU_AGL-10m_RLatLon0.09_PT000H.grib2 2026-04-15 08:45 356K
20260415T06Z_MSC_RDPS_WindU_AGL-120m_RLatLon0.09_PT000H.grib2 2026-04-15 08:45 484K
20260415T06Z_MSC_RDPS_WindU_AGL-40m_RLatLon0.09_PT000H.grib2 2026-04-15 08:45 495K
20260415T06Z_MSC_RDPS_WindU_AGL-80m_RLatLon0.09_PT000H.grib2 2026-04-15 08:44 490K
20260415T06Z_MSC_RDPS_WindU_IsbL-0001_RLatLon0.09_PT000H.grib2 2026-04-15 08:44 256K
20260415T06Z_MSC_RDPS_WindU_IsbL-0005_RLatLon0.09_PT000H.grib2 2026-04-15 08:44 310K
20260415T06Z_MSC_RDPS_WindU_IsbL-0010_RLatLon0.09_PT000H.grib2 2026-04-15 08:44 290K
20260415T06Z_MSC_RDPS_WindU_IsbL-0020_RLatLon0.09_PT000H.grib2 2026-04-15 08:44 300K
20260415T06Z_MSC_RDPS_WindU_IsbL-0030_RLatLon0.09_PT000H.grib2 2026-04-15 08:44 302K
20260415T06Z_MSC_RDPS_WindU_IsbL-0050_RLatLon0.09_PT000H.grib2 2026-04-15 08:44 322K
20260415T06Z_MSC_RDPS_WindU_IsbL-0100_RLatLon0.09_PT000H.grib2 2026-04-15 08:44 294K
20260415T06Z_MSC_RDPS_WindU_IsbL-0150_RLatLon0.09_PT000H.grib2 2026-04-15 08:44 342K
20260415T06Z_MSC_RDPS_WindU_IsbL-0175_RLatLon0.09_PT000H.grib2 2026-04-15 08:44 360K
20260415T06Z_MSC_RDPS_WindU_IsbL-0200_RLatLon0.09_PT000H.grib2 2026-04-15 08:44 289K
20260415T06Z_MSC_RDPS_WindU_IsbL-0225_RLatLon0.09_PT000H.grib2 2026-04-15 08:44 293K
20260415T06Z_MSC_RDPS_WindU_IsbL-0250_RLatLon0.09_PT000H.grib2 2026-04-15 08:44 298K
20260415T06Z_MSC_RDPS_WindU_IsbL-0275_RLatLon0.09_PT000H.grib2 2026-04-15 08:44 310K
20260415T06Z_MSC_RDPS_WindU_IsbL-0300_RLatLon0.09_PT000H.grib2 2026-04-15 08:44 309K
20260415T06Z_MSC_RDPS_WindU_IsbL-0350_RLatLon0.09_PT000H.grib2 2026-04-15 08:44 317K
20260415T06Z_MSC_RDPS_WindU_IsbL-0400_RLatLon0.09_PT000H.grib2 2026-04-15 08:44 410K
20260415T06Z_MSC_RDPS_WindU_IsbL-0450_RLatLon0.09_PT000H.grib2 2026-04-15 08:44 409K
20260415T06Z_MSC_RDPS_WindU_IsbL-0500_RLatLon0.09_PT000H.grib2 2026-04-15 08:44 410K
20260415T06Z_MSC_RDPS_WindU_IsbL-0550_RLatLon0.09_PT000H.grib2 2026-04-15 08:45 412K
20260415T06Z_MSC_RDPS_WindU_IsbL-0600_RLatLon0.09_PT000H.grib2 2026-04-15 08:44 419K
20260415T06Z_MSC_RDPS_WindU_IsbL-0650_RLatLon0.09_PT000H.grib2 2026-04-15 08:44 432K
20260415T06Z_MSC_RDPS_WindU_IsbL-0700_RLatLon0.09_PT000H.grib2 2026-04-15 08:44 426K
20260415T06Z_MSC_RDPS_WindU_IsbL-0750_RLatLon0.09_PT000H.grib2 2026-04-15 08:44 447K
20260415T06Z_MSC_RDPS_WindU_IsbL-0800_RLatLon0.09_PT000H.grib2 2026-04-15 08:44 480K
20260415T06Z_MSC_RDPS_WindU_IsbL-0850_RLatLon0.09_PT000H.grib2 2026-04-15 08:44 639K
20260415T06Z_MSC_RDPS_WindU_IsbL-0875_RLatLon0.09_PT000H.grib2 2026-04-15 08:45 651K
20260415T06Z_MSC_RDPS_WindU_IsbL-0900_RLatLon0.09_PT000H.grib2 2026-04-15 08:44 660K
20260415T06Z_MSC_RDPS_WindU_IsbL-0925_RLatLon0.09_PT000H.grib2 2026-04-15 08:44 666K
20260415T06Z_MSC_RDPS_WindU_IsbL-0950_RLatLon0.09_PT000H.grib2 2026-04-15 08:44 668K
20260415T06Z_MSC_RDPS_WindU_IsbL-0970_RLatLon0.09_PT000H.grib2 2026-04-15 08:44 667K
20260415T06Z_MSC_RDPS_WindU_IsbL-0985_RLatLon0.09_PT000H.grib2 2026-04-15 08:44 705K
20260415T06Z_MSC_RDPS_WindU_IsbL-1000_RLatLon0.09_PT000H.grib2 2026-04-15 08:44 695K
20260415T06Z_MSC_RDPS_WindU_IsbL-1015_RLatLon0.09_PT000H.grib2 2026-04-15 08:44 682K
20260415T06Z_MSC_RDPS_WindV_AGL-10m_RLatLon0.09_PT000H.grib2 2026-04-15 08:44 358K
20260415T06Z_MSC_RDPS_WindV_AGL-120m_RLatLon0.09_PT000H.grib2 2026-04-15 08:44 484K
20260415T06Z_MSC_RDPS_WindV_AGL-40m_RLatLon0.09_PT000H.grib2 2026-04-15 08:44 498K
20260415T06Z_MSC_RDPS_WindV_AGL-80m_RLatLon0.09_PT000H.grib2 2026-04-15 08:44 492K
20260415T06Z_MSC_RDPS_WindV_IsbL-0001_RLatLon0.09_PT000H.grib2 2026-04-15 08:44 202K
20260415T06Z_MSC_RDPS_WindV_IsbL-0005_RLatLon0.09_PT000H.grib2 2026-04-15 08:44 224K
20260415T06Z_MSC_RDPS_WindV_IsbL-0010_RLatLon0.09_PT000H.grib2 2026-04-15 08:44 288K
20260415T06Z_MSC_RDPS_WindV_IsbL-0020_RLatLon0.09_PT000H.grib2 2026-04-15 08:44 327K
20260415T06Z_MSC_RDPS_WindV_IsbL-0030_RLatLon0.09_PT000H.grib2 2026-04-15 08:44 328K
20260415T06Z_MSC_RDPS_WindV_IsbL-0050_RLatLon0.09_PT000H.grib2 2026-04-15 08:44 312K
20260415T06Z_MSC_RDPS_WindV_IsbL-0100_RLatLon0.09_PT000H.grib2 2026-04-15 08:44 292K
20260415T06Z_MSC_RDPS_WindV_IsbL-0150_RLatLon0.09_PT000H.grib2 2026-04-15 08:44 341K
20260415T06Z_MSC_RDPS_WindV_IsbL-0175_RLatLon0.09_PT000H.grib2 2026-04-15 08:44 360K
20260415T06Z_MSC_RDPS_WindV_IsbL-0200_RLatLon0.09_PT000H.grib2 2026-04-15 08:44 289K
20260415T06Z_MSC_RDPS_WindV_IsbL-0225_RLatLon0.09_PT000H.grib2 2026-04-15 08:44 379K
20260415T06Z_MSC_RDPS_WindV_IsbL-0250_RLatLon0.09_PT000H.grib2 2026-04-15 08:44 296K
20260415T06Z_MSC_RDPS_WindV_IsbL-0275_RLatLon0.09_PT000H.grib2 2026-04-15 08:44 307K
20260415T06Z_MSC_RDPS_WindV_IsbL-0300_RLatLon0.09_PT000H.grib2 2026-04-15 08:44 306K
20260415T06Z_MSC_RDPS_WindV_IsbL-0350_RLatLon0.09_PT000H.grib2 2026-04-15 08:44 314K
20260415T06Z_MSC_RDPS_WindV_IsbL-0400_RLatLon0.09_PT000H.grib2 2026-04-15 08:44 316K
20260415T06Z_MSC_RDPS_WindV_IsbL-0450_RLatLon0.09_PT000H.grib2 2026-04-15 08:44 409K
20260415T06Z_MSC_RDPS_WindV_IsbL-0500_RLatLon0.09_PT000H.grib2 2026-04-15 08:44 408K
20260415T06Z_MSC_RDPS_WindV_IsbL-0550_RLatLon0.09_PT000H.grib2 2026-04-15 08:44 410K
20260415T06Z_MSC_RDPS_WindV_IsbL-0600_RLatLon0.09_PT000H.grib2 2026-04-15 08:44 417K
20260415T06Z_MSC_RDPS_WindV_IsbL-0650_RLatLon0.09_PT000H.grib2 2026-04-15 08:44 431K
20260415T06Z_MSC_RDPS_WindV_IsbL-0700_RLatLon0.09_PT000H.grib2 2026-04-15 08:44 424K
20260415T06Z_MSC_RDPS_WindV_IsbL-0750_RLatLon0.09_PT000H.grib2 2026-04-15 08:44 444K
20260415T06Z_MSC_RDPS_WindV_IsbL-0800_RLatLon0.09_PT000H.grib2 2026-04-15 08:44 474K
20260415T06Z_MSC_RDPS_WindV_IsbL-0850_RLatLon0.09_PT000H.grib2 2026-04-15 08:44 510K
20260415T06Z_MSC_RDPS_WindV_IsbL-0875_RLatLon0.09_PT000H.grib2 2026-04-15 08:44 523K
20260415T06Z_MSC_RDPS_WindV_IsbL-0900_RLatLon0.09_PT000H.grib2 2026-04-15 08:44 532K
20260415T06Z_MSC_RDPS_WindV_IsbL-0925_RLatLon0.09_PT000H.grib2 2026-04-15 08:44 537K
20260415T06Z_MSC_RDPS_WindV_IsbL-0950_RLatLon0.09_PT000H.grib2 2026-04-15 08:45 540K
20260415T06Z_MSC_RDPS_WindV_IsbL-0970_RLatLon0.09_PT000H.grib2 2026-04-15 08:44 542K
20260415T06Z_MSC_RDPS_WindV_IsbL-0985_RLatLon0.09_PT000H.grib2 2026-04-15 08:44 664K
20260415T06Z_MSC_RDPS_WindV_IsbL-1000_RLatLon0.09_PT000H.grib2 2026-04-15 08:44 655K
20260415T06Z_MSC_RDPS_WindV_IsbL-1015_RLatLon0.09_PT000H.grib2 2026-04-15 08:44 640K